Time;durP1;ratioP1;P1;durP2;ratioP2;P2;SDS_P1;SDS_P2;PMS_P1;PMS_P2;Temp;Humidity;BMP_temperature;BMP_pressure;BME280_temperature;BME280_humidity;BME280_pressure;Samples;Min_cycle;Max_cycle;Signal;HPM_P1;HPM_P2
2023/05/14 00:02:13;;;;;;;37.42;18.35;;;14.10;99.90;;;;;;5013835;28;20029;-62
2023/05/14 00:04:39;;;;;;;27.83;18.80;;;14.10;99.90;;;;;;5017527;28;20026;-61
2023/05/14 00:07:05;;;;;;;29.52;18.83;;;14.00;99.90;;;;;;5017138;28;20802;-61
2023/05/14 00:09:31;;;;;;;28.27;19.02;;;13.90;99.90;;;;;;5017345;28;20095;-62
2023/05/14 00:11:57;;;;;;;26.90;18.88;;;14.00;99.90;;;;;;5017245;28;20368;-61
2023/05/14 00:14:23;;;;;;;27.63;17.27;;;13.90;99.90;;;;;;5017228;28;20041;-61
2023/05/14 00:16:49;;;;;;;33.47;19.15;;;14.00;99.90;;;;;;5017375;28;20061;-61
2023/05/14 00:19:15;;;;;;;30.67;18.70;;;14.00;99.90;;;;;;5017112;28;20092;-61
2023/05/14 00:21:41;;;;;;;27.83;18.10;;;14.10;99.90;;;;;;5017140;28;20034;-62
2023/05/14 00:24:07;;;;;;;36.15;20.27;;;14.00;99.90;;;;;;5017233;28;20069;-61
2023/05/14 00:26:33;;;;;;;28.60;17.02;;;14.00;99.90;;;;;;5017078;28;20033;-61
2023/05/14 00:28:59;;;;;;;30.23;18.83;;;13.90;99.90;;;;;;5017015;28;20030;-62
2023/05/14 00:31:25;;;;;;;27.73;18.35;;;14.00;99.90;;;;;;5017175;28;20105;-61
2023/05/14 00:33:51;;;;;;;28.65;18.13;;;14.10;99.90;;;;;;4999200;28;20555;-62
2023/05/14 00:36:17;;;;;;;28.27;18.00;;;14.00;99.90;;;;;;5016946;28;20356;-61
2023/05/14 00:38:43;;;;;;;27.30;18.77;;;14.10;99.90;;;;;;5016933;28;20049;-62
2023/05/14 00:41:09;;;;;;;34.08;19.00;;;14.10;99.90;;;;;;4999336;28;20119;-61
2023/05/14 00:43:35;;;;;;;29.77;18.60;;;14.10;99.90;;;;;;5016747;28;20192;-62
2023/05/14 00:46:01;;;;;;;25.98;17.02;;;14.00;99.90;;;;;;4999114;28;20040;-62
2023/05/14 00:48:27;;;;;;;26.25;18.25;;;14.00;99.90;;;;;;5016606;28;20124;-61
2023/05/14 00:50:53;;;;;;;27.67;17.83;;;14.00;99.90;;;;;;5016707;28;20030;-62
2023/05/14 00:53:20;;;;;;;35.53;18.95;;;13.90;99.90;;;;;;5016696;28;20034;-62
2023/05/14 00:55:47;;;;;;;28.88;18.70;;;14.00;99.90;;;;;;5016451;28;20109;-61
2023/05/14 00:58:13;;;;;;;25.13;17.17;;;13.90;99.90;;;;;;5016566;28;20065;-61
2023/05/14 01:00:40;;;;;;;27.60;17.20;;;13.90;99.90;;;;;;4998989;28;20088;-61
2023/05/14 01:03:07;;;;;;;38.03;20.70;;;13.80;99.90;;;;;;5016251;28;20033;-61
2023/05/14 01:05:54;;;;;;;34.42;20.17;;;13.80;99.90;;;;;;4998669;28;20045;-61
2023/05/14 01:08:49;;;;;;;35.83;18.75;;;13.80;99.90;;;;;;4998672;28;20088;-61
2023/05/14 01:11:25;;;;;;;31.20;18.40;;;13.80;99.90;;;;;;5016145;28;20475;-61
2023/05/14 01:14:22;;;;;;;30.00;18.92;;;13.80;99.90;;;;;;5016208;28;20411;-62
2023/05/14 01:16:55;;;;;;;28.10;16.90;;;13.80;99.90;;;;;;5016062;28;20382;-61
2023/05/14 01:19:42;;;;;;;24.00;16.00;;;13.80;99.90;;;;;;5016034;28;20030;-61
2023/05/14 01:22:09;;;;;;;29.38;16.17;;;14.00;99.90;;;;;;5016129;28;20458;-61
2023/05/14 01:24:35;;;;;;;27.05;15.57;;;13.90;99.90;;;;;;4998299;28;20056;-61
2023/05/14 01:27:20;;;;;;;22.38;13.43;;;14.00;99.90;;;;;;5015885;28;20387;-61
2023/05/14 01:30:16;;;;;;;24.20;14.57;;;14.00;99.90;;;;;;5015694;28;20116;-62
2023/05/14 01:32:46;;;;;;;21.75;13.80;;;14.00;99.90;;;;;;5015400;28;20030;-61
2023/05/14 01:35:14;;;;;;;17.40;12.60;;;13.90;99.90;;;;;;5016318;28;20034;-61
2023/05/14 01:37:41;;;;;;;19.73;12.77;;;13.90;99.90;;;;;;5015899;28;20037;-62
2023/05/14 01:40:10;;;;;;;18.33;11.15;;;13.90;99.90;;;;;;4998334;28;20034;-61
2023/05/14 01:42:37;;;;;;;16.60;11.15;;;14.00;99.90;;;;;;5015705;28;20037;-61
2023/05/14 01:45:04;;;;;;;18.80;11.55;;;14.10;99.90;;;;;;5015622;28;20636;-61
2023/05/14 01:47:30;;;;;;;18.92;10.35;;;14.00;99.90;;;;;;4997987;28;20500;-61
2023/05/14 01:49:56;;;;;;;13.48;10.07;;;14.00;99.90;;;;;;4998053;28;20092;-61
2023/05/14 01:52:22;;;;;;;15.73;10.60;;;14.00;99.90;;;;;;5015587;28;20041;-62
2023/05/14 01:54:48;;;;;;;17.17;10.23;;;13.90;99.90;;;;;;4997843;28;20113;-61
2023/05/14 01:57:14;;;;;;;17.48;11.02;;;13.90;99.90;;;;;;5015452;28;20084;-61
2023/05/14 01:59:40;;;;;;;17.10;10.45;;;13.90;99.90;;;;;;4997787;28;20037;-61
2023/05/14 02:02:06;;;;;;;16.42;10.90;;;13.90;99.90;;;;;;4997692;28;20038;-61
2023/05/14 02:04:32;;;;;;;14.32;9.45;;;13.90;99.90;;;;;;5015453;28;20132;-61
2023/05/14 02:06:58;;;;;;;13.20;9.50;;;13.90;99.90;;;;;;5015072;28;20042;-61
2023/05/14 02:09:24;;;;;;;19.27;11.75;;;13.90;99.90;;;;;;5015229;28;20038;-62
2023/05/14 02:11:50;;;;;;;20.88;11.27;;;13.90;99.90;;;;;;4997612;28;20437;-61
2023/05/14 02:14:15;;;;;;;18.35;10.98;;;13.80;99.90;;;;;;4997634;28;20134;-61
2023/05/14 02:16:41;;;;;;;16.63;11.95;;;13.80;99.90;;;;;;5015169;28;20097;-62
2023/05/14 02:19:07;;;;;;;17.75;11.05;;;13.90;99.90;;;;;;5015085;28;20029;-61
2023/05/14 02:21:34;;;;;;;16.52;11.63;;;13.80;99.90;;;;;;4997410;28;20075;-61
2023/05/14 02:24:00;;;;;;;21.27;11.65;;;13.80;99.90;;;;;;5015090;28;20022;-62
2023/05/14 02:26:26;;;;;;;14.65;9.52;;;13.80;99.90;;;;;;4996850;28;20022;-61
2023/05/14 02:28:52;;;;;;;17.80;11.20;;;13.80;99.90;;;;;;4997387;28;20064;-61
2023/05/14 02:31:18;;;;;;;17.38;10.45;;;13.80;99.90;;;;;;5014921;28;20030;-61
2023/05/14 02:33:44;;;;;;;17.70;10.77;;;13.80;99.90;;;;;;4997206;28;20470;-61
2023/05/14 02:36:10;;;;;;;19.17;10.75;;;13.80;99.90;;;;;;4997198;28;20549;-61
2023/05/14 02:38:36;;;;;;;16.58;11.13;;;13.90;99.90;;;;;;4997169;28;20514;-61
2023/05/14 02:41:02;;;;;;;13.52;10.10;;;13.90;99.90;;;;;;5014764;28;20026;-61
2023/05/14 02:43:28;;;;;;;22.52;10.40;;;14.00;99.90;;;;;;5014804;28;20033;-61
2023/05/14 02:45:54;;;;;;;18.67;10.85;;;14.00;99.90;;;;;;5015136;28;20041;-61
2023/05/14 02:48:21;;;;;;;21.15;10.40;;;14.00;99.90;;;;;;4997309;28;20072;-61
2023/05/14 02:50:48;;;;;;;14.15;9.80;;;14.00;99.90;;;;;;5014703;28;20029;-62
2023/05/14 02:53:14;;;;;;;14.30;8.60;;;14.00;99.90;;;;;;5014779;28;20033;-62
2023/05/14 02:55:40;;;;;;;16.27;8.02;;;13.90;99.90;;;;;;4997111;28;20080;-62
2023/05/14 02:58:06;;;;;;;11.13;7.75;;;13.80;99.90;;;;;;5014605;28;20331;-61
2023/05/14 03:00:32;;;;;;;11.15;6.55;;;13.80;99.90;;;;;;5014687;28;20034;-61
2023/05/14 03:02:58;;;;;;;10.32;7.13;;;13.80;99.90;;;;;;4996932;28;20033;-61
2023/05/14 03:05:24;;;;;;;12.48;7.55;;;13.90;99.90;;;;;;4997055;28;20030;-61
2023/05/14 03:07:50;;;;;;;14.10;8.18;;;13.90;99.90;;;;;;4993726;28;20051;-62
2023/05/14 03:10:16;;;;;;;13.38;7.85;;;13.80;99.90;;;;;;4994766;28;20042;-61
2023/05/14 03:12:42;;;;;;;16.73;7.70;;;13.80;99.90;;;;;;4993587;28;20034;-62
2023/05/14 03:15:09;;;;;;;12.85;6.82;;;13.80;99.90;;;;;;4995037;28;20498;-62
2023/05/14 03:17:35;;;;;;;11.40;6.80;;;13.80;99.90;;;;;;4994869;28;20531;-62
2023/05/14 03:20:01;;;;;;;15.45;7.45;;;13.80;99.90;;;;;;4994729;28;20117;-61
2023/05/14 03:22:27;;;;;;;14.15;7.75;;;13.90;99.90;;;;;;4994792;28;20029;-61
2023/05/14 03:24:53;;;;;;;11.82;7.70;;;13.80;99.90;;;;;;4993634;28;20046;-62
2023/05/14 03:27:19;;;;;;;14.07;7.32;;;13.80;99.90;;;;;;4994747;28;20023;-62
2023/05/14 03:29:45;;;;;;;19.10;7.18;;;13.80;99.90;;;;;;4994859;28;20027;-62
2023/05/14 03:32:11;;;;;;;11.60;6.95;;;13.80;99.90;;;;;;4994952;28;20041;-61
2023/05/14 03:34:37;;;;;;;12.90;6.95;;;13.80;99.90;;;;;;4994691;28;20040;-61
2023/05/14 03:37:04;;;;;;;16.30;7.85;;;13.80;99.90;;;;;;4993388;28;20034;-62
2023/05/14 03:39:29;;;;;;;14.85;6.93;;;13.80;99.90;;;;;;4998183;28;20088;-61
2023/05/14 03:41:57;;;;;;;12.95;7.22;;;13.80;99.90;;;;;;4998361;28;20038;-61
2023/05/14 03:44:24;;;;;;;17.55;7.88;;;13.80;99.90;;;;;;4997058;28;20022;-61
2023/05/14 03:46:50;;;;;;;10.30;7.45;;;13.80;99.90;;;;;;4996848;28;20030;-61
2023/05/14 03:49:16;;;;;;;10.00;7.05;;;13.60;99.90;;;;;;4980827;28;20045;-61
2023/05/14 03:51:42;;;;;;;17.13;7.50;;;13.70;99.90;;;;;;4996838;28;20031;-61
2023/05/14 03:54:08;;;;;;;12.13;7.05;;;13.70;99.90;;;;;;4996837;28;20034;-61
2023/05/14 03:56:34;;;;;;;11.25;7.47;;;13.60;99.90;;;;;;4996951;28;20030;-61
2023/05/14 03:59:02;;;;;;;12.45;7.15;;;13.70;99.90;;;;;;4996795;28;20046;-61
2023/05/14 04:01:28;;;;;;;13.60;7.75;;;13.80;99.90;;;;;;4997983;28;20026;-61
2023/05/14 04:03:54;;;;;;;14.98;7.85;;;13.70;99.90;;;;;;4996621;28;20037;-61
2023/05/14 04:06:20;;;;;;;13.32;7.50;;;13.80;99.90;;;;;;4996360;28;20043;-61
2023/05/14 04:08:46;;;;;;;12.95;7.30;;;13.80;99.90;;;;;;4997657;28;20049;-62
2023/05/14 04:11:12;;;;;;;17.92;7.03;;;13.80;99.90;;;;;;4997899;28;20031;-62
2023/05/14 04:13:38;;;;;;;14.65;6.78;;;13.90;99.90;;;;;;4996508;28;20030;-62
2023/05/14 04:16:04;;;;;;;14.00;6.45;;;13.90;99.90;;;;;;4996267;28;20030;-62
2023/05/14 04:18:34;;;;;;;9.95;5.90;;;13.90;99.90;;;;;;4996443;28;20404;-61
2023/05/14 04:21:00;;;;;;;11.65;6.30;;;13.90;99.90;;;;;;4996043;28;20042;-61
2023/05/14 04:23:26;;;;;;;10.57;5.57;;;13.90;99.90;;;;;;4997426;28;20023;-61
2023/05/14 04:25:52;;;;;;;12.05;6.05;;;13.90;99.90;;;;;;4997552;28;20025;-61
2023/05/14 04:28:18;;;;;;;13.68;6.22;;;13.90;99.90;;;;;;4997509;28;20057;-61
2023/05/14 04:30:44;;;;;;;9.85;6.07;;;14.00;99.90;;;;;;4997453;28;20038;-62
2023/05/14 04:33:10;;;;;;;14.43;6.30;;;14.00;99.90;;;;;;4997538;28;20046;-62
2023/05/14 04:35:36;;;;;;;8.57;5.25;;;14.00;99.90;;;;;;4997336;28;20034;-61
2023/05/14 04:38:02;;;;;;;10.20;5.53;;;14.00;99.90;;;;;;4997271;28;20550;-61
2023/05/14 04:40:30;;;;;;;13.88;5.93;;;13.90;99.90;;;;;;4997369;28;20069;-61
2023/05/14 04:42:56;;;;;;;13.13;6.18;;;13.90;99.90;;;;;;4997277;28;20037;-61
2023/05/14 04:45:22;;;;;;;7.35;5.72;;;14.00;99.90;;;;;;4997131;28;20030;-62
2023/05/14 04:47:48;;;;;;;9.77;5.53;;;14.00;99.90;;;;;;4997166;28;20038;-62
2023/05/14 04:50:14;;;;;;;9.48;5.88;;;14.00;99.90;;;;;;4996562;28;20030;-62
2023/05/14 04:52:40;;;;;;;12.55;6.63;;;13.90;99.90;;;;;;4997188;28;20029;-61
2023/05/14 04:55:07;;;;;;;9.70;6.22;;;14.00;99.90;;;;;;4997084;28;20495;-61
2023/05/14 04:57:33;;;;;;;9.27;6.32;;;13.90;99.90;;;;;;4995673;28;20026;-61
2023/05/14 04:59:59;;;;;;;12.23;5.88;;;13.90;99.90;;;;;;4996849;28;20029;-61
2023/05/14 05:02:24;;;;;;;8.43;5.88;;;13.90;99.90;;;;;;4996983;28;20031;-62
2023/05/14 05:04:50;;;;;;;11.13;6.30;;;14.00;99.90;;;;;;4996785;28;20023;-61
2023/05/14 05:07:16;;;;;;;12.00;6.63;;;14.10;99.90;;;;;;5011802;28;20521;-61
2023/05/14 05:09:42;;;;;;;12.25;6.30;;;14.10;99.90;;;;;;5016331;28;20034;-61
2023/05/14 05:12:09;;;;;;;10.38;6.85;;;14.10;99.90;;;;;;5016273;28;20065;-61
2023/05/14 05:14:35;;;;;;;12.48;6.88;;;14.20;99.90;;;;;;5016319;28;20026;-61
2023/05/14 05:17:01;;;;;;;10.15;6.05;;;14.20;99.90;;;;;;5016204;28;20394;-62
2023/05/14 05:19:27;;;;;;;14.57;7.00;;;14.30;99.90;;;;;;5015970;28;20036;-62
2023/05/14 05:21:53;;;;;;;15.80;7.90;;;14.40;99.90;;;;;;5016133;28;20022;-61
2023/05/14 05:24:19;;;;;;;14.60;7.93;;;14.50;99.90;;;;;;5016033;28;20033;-61
2023/05/14 05:26:44;;;;;;;11.80;7.57;;;14.50;99.90;;;;;;5015806;28;20030;-62
2023/05/14 05:29:10;;;;;;;14.55;8.68;;;14.50;99.90;;;;;;5016007;28;20026;-61
2023/05/14 05:31:36;;;;;;;14.98;9.15;;;14.60;99.90;;;;;;5015856;28;20061;-62
2023/05/14 05:34:03;;;;;;;12.50;7.93;;;14.70;99.90;;;;;;5015815;28;20033;-61
2023/05/14 05:36:29;;;;;;;9.90;7.03;;;14.70;99.90;;;;;;5015808;28;20052;-61
2023/05/14 05:38:55;;;;;;;15.48;7.78;;;14.70;99.90;;;;;;5015706;28;20144;-61
2023/05/14 05:41:21;;;;;;;11.15;7.63;;;14.80;99.90;;;;;;5016105;28;20105;-62
2023/05/14 05:43:47;;;;;;;15.30;8.02;;;14.80;99.90;;;;;;5015542;28;20049;-61
2023/05/14 05:46:13;;;;;;;11.38;7.55;;;14.80;99.90;;;;;;5015619;28;20080;-61
2023/05/14 05:48:39;;;;;;;12.00;7.38;;;14.80;99.90;;;;;;4998075;28;20036;-61
2023/05/14 05:51:05;;;;;;;20.33;8.68;;;14.70;99.90;;;;;;5015513;28;20395;-61
2023/05/14 05:53:31;;;;;;;14.27;6.85;;;14.70;99.90;;;;;;5015566;28;20037;-61
2023/05/14 05:55:57;;;;;;;13.43;7.45;;;14.80;99.90;;;;;;5015347;28;20390;-62
2023/05/14 05:58:23;;;;;;;9.50;7.30;;;14.80;99.90;;;;;;5015458;28;20030;-61
2023/05/14 06:00:48;;;;;;;11.27;6.53;;;14.90;99.90;;;;;;5014463;28;20030;-61
2023/05/14 06:03:14;;;;;;;10.27;6.63;;;14.70;99.90;;;;;;5015284;28;20464;-61
2023/05/14 06:05:40;;;;;;;9.00;6.40;;;14.70;99.90;;;;;;5015270;28;20021;-61
2023/05/14 06:08:06;;;;;;;9.88;7.28;;;14.80;99.90;;;;;;5015791;28;20422;-61
2023/05/14 06:10:33;;;;;;;8.45;6.15;;;14.80;99.90;;;;;;5015025;28;20037;-61
2023/05/14 06:12:59;;;;;;;9.48;5.97;;;14.70;99.90;;;;;;5015214;28;20037;-62
2023/05/14 06:15:25;;;;;;;8.65;6.45;;;14.60;99.90;;;;;;5015069;28;20026;-61
2023/05/14 06:17:51;;;;;;;8.63;5.97;;;14.60;99.90;;;;;;5015022;28;20033;-62
2023/05/14 06:20:17;;;;;;;8.63;6.05;;;14.60;99.90;;;;;;5015018;28;20030;-61
2023/05/14 06:22:43;;;;;;;10.43;6.22;;;14.70;99.90;;;;;;5014995;28;20356;-61
2023/05/14 06:25:09;;;;;;;12.38;6.28;;;14.60;99.90;;;;;;5014971;28;20393;-61
2023/05/14 06:27:35;;;;;;;8.88;6.25;;;14.60;99.90;;;;;;5014952;28;20030;-61
2023/05/14 06:30:01;;;;;;;11.75;6.38;;;14.60;99.90;;;;;;5014823;28;20492;-62
2023/05/14 06:32:27;;;;;;;8.90;6.53;;;14.80;99.90;;;;;;5014640;28;20029;-61
2023/05/14 06:34:53;;;;;;;9.25;6.47;;;14.90;99.90;;;;;;5014959;28;20376;-62
2023/05/14 06:37:19;;;;;;;12.57;6.57;;;14.80;99.90;;;;;;5014781;28;20030;-62
2023/05/14 06:39:48;;;;;;;12.85;7.07;;;14.90;99.90;;;;;;5014620;28;20026;-62
2023/05/14 06:42:34;;;;;;;10.52;6.20;;;15.00;99.90;;;;;;5014869;28;20360;-62
2023/05/14 06:45:04;;;;;;;8.93;6.95;;;15.00;99.90;;;;;;4953715;29;20601;-61
2023/05/14 06:47:30;;;;;;;11.25;7.97;;;15.10;99.90;;;;;;4937960;29;20733;-62
2023/05/14 06:49:57;;;;;;;10.40;8.20;;;15.30;99.90;;;;;;4937886;29;20119;-62
2023/05/14 06:52:24;;;;;;;10.73;7.75;;;15.50;99.90;;;;;;4953898;29;20137;-62
2023/05/14 06:54:50;;;;;;;8.85;6.18;;;15.70;99.90;;;;;;4953982;29;20031;-61
2023/05/14 06:57:16;;;;;;;10.60;7.05;;;15.80;99.90;;;;;;4953693;29;20070;-62
2023/05/14 06:59:42;;;;;;;12.57;6.88;;;16.10;99.90;;;;;;4953955;29;20075;-61
2023/05/14 07:02:08;;;;;;;8.95;6.15;;;16.60;99.90;;;;;;4953912;29;20035;-62
2023/05/14 07:04:35;;;;;;;12.15;6.90;;;17.10;99.90;;;;;;4953764;29;20044;-61
2023/05/14 07:07:01;;;;;;;8.38;5.13;;;17.40;99.90;;;;;;4953657;29;20536;-62
2023/05/14 07:09:27;;;;;;;8.13;5.32;;;17.20;99.90;;;;;;4953633;29;20043;-60
2023/05/14 07:11:53;;;;;;;8.48;5.00;;;17.50;99.90;;;;;;4954948;28;20123;-60
2023/05/14 07:14:19;;;;;;;8.98;5.00;;;18.00;99.90;;;;;;4957725;29;20114;-60
2023/05/14 07:16:45;;;;;;;8.70;4.05;;;18.50;99.90;;;;;;4957687;29;20397;-59
2023/05/14 07:19:12;;;;;;;7.20;4.70;;;18.10;99.90;;;;;;4957609;29;20027;-60
2023/05/14 07:21:37;;;;;;;6.28;4.63;;;18.50;99.90;;;;;;4970176;28;20077;-60
2023/05/14 07:24:04;;;;;;;6.00;4.00;;;18.80;99.90;;;;;;4998661;28;20062;-59
2023/05/14 07:26:30;;;;;;;5.15;3.75;;;19.00;99.90;;;;;;4998483;28;20037;-60
2023/05/14 07:28:56;;;;;;;5.72;4.00;;;18.70;99.90;;;;;;4998660;28;20499;-60
2023/05/14 07:31:22;;;;;;;6.05;4.45;;;18.60;99.90;;;;;;4998672;28;20034;-61
2023/05/14 07:33:48;;;;;;;4.50;3.72;;;18.70;99.90;;;;;;4998406;28;20027;-60
2023/05/14 07:36:14;;;;;;;7.20;4.25;;;18.60;99.90;;;;;;4998447;28;20037;-60
2023/05/14 07:38:40;;;;;;;6.20;3.60;;;18.90;99.90;;;;;;4998519;28;20026;-59
2023/05/14 07:41:06;;;;;;;5.60;3.75;;;19.10;99.90;;;;;;4998107;28;20031;-59
2023/05/14 07:43:32;;;;;;;6.05;3.58;;;19.00;99.90;;;;;;4998438;28;20027;-59
2023/05/14 07:45:58;;;;;;;6.03;4.40;;;19.10;99.90;;;;;;4998228;28;20457;-59
2023/05/14 07:48:24;;;;;;;5.75;4.00;;;19.40;99.90;;;;;;4998143;28;20070;-59
2023/05/14 07:50:50;;;;;;;5.25;4.20;;;19.30;99.90;;;;;;4998220;28;20070;-59
2023/05/14 07:53:16;;;;;;;4.53;3.70;;;19.20;99.90;;;;;;4998170;28;20076;-60
2023/05/14 07:55:44;;;;;;;8.68;4.45;;;19.50;99.90;;;;;;4998072;28;20038;-60
2023/05/14 07:58:10;;;;;;;11.38;4.38;;;19.90;99.90;;;;;;4998041;28;20564;-60
2023/05/14 08:00:36;;;;;;;11.45;6.07;;;19.50;99.90;;;;;;4998098;28;20088;-59
2023/05/14 08:03:02;;;;;;;11.05;4.90;;;19.40;99.90;;;;;;4997880;28;20369;-59
2023/05/14 08:05:28;;;;;;;6.90;4.78;;;19.70;99.90;;;;;;4998285;28;20023;-60
2023/05/14 08:07:54;;;;;;;9.20;4.13;;;19.70;99.90;;;;;;5017421;28;20088;-59
2023/05/14 08:10:20;;;;;;;8.13;3.95;;;19.70;99.90;;;;;;5017258;28;20052;-59
2023/05/14 08:12:46;;;;;;;5.97;3.67;;;19.50;99.90;;;;;;5017424;28;20461;-60
2023/05/14 08:15:11;;;;;;;6.80;4.03;;;19.20;99.90;;;;;;5017401;28;20109;-59
2023/05/14 08:17:37;;;;;;;4.75;3.22;;;19.20;99.90;;;;;;5017313;28;20032;-59
2023/05/14 08:20:05;;;;;;;4.57;3.38;;;19.40;99.90;;;;;;5017166;28;20250;-59
2023/05/14 08:22:31;;;;;;;5.10;3.28;;;19.80;99.90;;;;;;5017067;28;20503;-60
2023/05/14 08:24:58;;;;;;;4.00;3.00;;;19.50;99.90;;;;;;5016376;28;20033;-59
2023/05/14 08:27:25;;;;;;;4.45;3.33;;;19.60;99.90;;;;;;5017176;28;20025;-58
2023/05/14 08:29:51;;;;;;;9.55;4.15;;;19.90;99.90;;;;;;5017095;28;20034;-59
2023/05/14 08:32:17;;;;;;;6.03;3.97;;;19.90;99.90;;;;;;5016946;28;20034;-59
2023/05/14 08:34:42;;;;;;;5.88;3.65;;;20.00;99.90;;;;;;5016991;28;20054;-59
2023/05/14 08:37:08;;;;;;;6.20;3.33;;;20.00;99.90;;;;;;5016940;28;20061;-60
2023/05/14 08:39:34;;;;;;;5.70;3.30;;;19.70;99.80;;;;;;5017122;28;20142;-59
2023/05/14 08:42:03;;;;;;;4.65;3.22;;;20.00;99.90;;;;;;5016790;28;20022;-60
2023/05/14 08:44:41;;;;;;;4.53;3.08;;;19.80;98.90;;;;;;5016770;28;20502;-60
2023/05/14 08:47:07;;;;;;;6.00;3.45;;;19.50;99.90;;;;;;5016675;28;20032;-59
2023/05/14 08:49:40;;;;;;;3.70;2.90;;;19.70;99.90;;;;;;5016649;28;20037;-60
2023/05/14 08:52:08;;;;;;;10.48;3.58;;;19.50;99.70;;;;;;5016604;28;20427;-59
2023/05/14 08:54:34;;;;;;;6.45;2.97;;;19.60;99.90;;;;;;5016541;28;20057;-60
2023/05/14 08:57:01;;;;;;;5.03;3.42;;;19.70;99.90;;;;;;5016473;28;20030;-59
2023/05/14 08:59:27;;;;;;;6.25;4.00;;;19.40;99.90;;;;;;5016339;28;20087;-60
2023/05/14 09:01:55;;;;;;;5.47;3.60;;;19.10;99.90;;;;;;5016389;28;20018;-59
2023/05/14 09:04:23;;;;;;;8.18;3.53;;;19.50;99.90;;;;;;5016260;28;20530;-59
2023/05/14 09:06:52;;;;;;;7.40;3.40;;;19.60;99.90;;;;;;5016143;28;20045;-60
2023/05/14 09:09:21;;;;;;;4.80;3.22;;;20.00;99.90;;;;;;5016109;28;20029;-59
2023/05/14 09:11:51;;;;;;;7.40;3.42;;;20.10;99.20;;;;;;5016203;28;20406;-60
2023/05/14 09:14:17;;;;;;;7.23;3.30;;;20.10;99.90;;;;;;5016268;28;20030;-59
2023/05/14 09:16:48;;;;;;;5.85;3.70;;;20.20;99.90;;;;;;5016112;28;20096;-59
2023/05/14 09:19:17;;;;;;;7.25;3.60;;;20.40;99.90;;;;;;5016042;28;20038;-59
2023/05/14 09:21:47;;;;;;;5.10;3.25;;;20.80;99.90;;;;;;5016078;28;20024;-59
2023/05/14 09:24:25;;;;;;;3.40;2.83;;;20.50;96.50;;;;;;5016041;28;20034;-59
2023/05/14 09:26:57;;;;;;;10.13;3.83;;;19.90;99.10;;;;;;5015986;28;20026;-59
2023/05/14 09:29:28;;;;;;;6.45;3.95;;;19.90;99.90;;;;;;4998357;28;20037;-59
2023/05/14 09:31:55;;;;;;;9.15;3.80;;;20.20;99.90;;;;;;5015925;28;20066;-59
2023/05/14 09:34:33;;;;;;;7.93;4.40;;;20.80;98.50;;;;;;5015819;28;20026;-59
2023/05/14 09:37:01;;;;;;;7.57;3.72;;;20.80;98.60;;;;;;5015877;28;20033;-59
2023/05/14 09:39:27;;;;;;;7.68;4.00;;;21.00;99.50;;;;;;5015782;28;20494;-59
2023/05/14 09:41:54;;;;;;;9.93;3.78;;;21.10;99.00;;;;;;5015637;28;20472;-60
2023/05/14 09:44:21;;;;;;;6.35;3.60;;;20.90;98.00;;;;;;5015774;28;20080;-59
2023/05/14 09:46:48;;;;;;;6.95;3.67;;;20.90;98.60;;;;;;5015665;28;20026;-59
2023/05/14 09:49:15;;;;;;;7.78;3.90;;;20.80;99.50;;;;;;5015458;28;20030;-59
2023/05/14 09:51:41;;;;;;;6.72;3.80;;;20.90;99.30;;;;;;5015675;28;20030;-59
2023/05/14 09:54:07;;;;;;;6.55;3.80;;;20.50;99.60;;;;;;5015508;28;20053;-59
2023/05/14 09:56:35;;;;;;;7.50;3.63;;;20.20;99.90;;;;;;5015309;28;20033;-59
2023/05/14 09:59:01;;;;;;;6.97;4.00;;;20.30;99.90;;;;;;5015333;28;20038;-59
2023/05/14 10:01:29;;;;;;;6.82;3.85;;;20.50;99.90;;;;;;5015403;28;20112;-59
2023/05/14 10:03:56;;;;;;;9.07;3.60;;;20.40;99.90;;;;;;5015285;28;20014;-60
2023/05/14 10:06:29;;;;;;;6.78;3.67;;;20.50;99.90;;;;;;5015269;28;20050;-59
2023/05/14 10:09:02;;;;;;;9.55;4.07;;;20.60;99.90;;;;;;5014978;28;20026;-59
2023/05/14 10:11:32;;;;;;;8.32;4.20;;;20.90;99.90;;;;;;5015352;28;20144;-59
2023/05/14 10:14:07;;;;;;;7.28;3.53;;;21.10;98.60;;;;;;5015217;28;20026;-59
2023/05/14 10:16:39;;;;;;;7.50;3.53;;;21.50;99.80;;;;;;5015161;28;20105;-59
2023/05/14 10:19:09;;;;;;;7.15;3.72;;;21.70;99.50;;;;;;5014962;28;20060;-59
2023/05/14 10:21:37;;;;;;;6.90;3.50;;;21.80;99.90;;;;;;5015037;28;20034;-60
2023/05/14 10:24:04;;;;;;;9.43;3.92;;;21.60;96.30;;;;;;5015046;28;20350;-60
2023/05/14 10:26:39;;;;;;;9.40;4.18;;;21.90;97.60;;;;;;5014833;28;20033;-59
2023/05/14 10:29:06;;;;;;;8.95;3.83;;;22.10;97.90;;;;;;5015003;28;20090;-59
2023/05/14 10:31:45;;;;;;;11.23;4.50;;;22.30;97.60;;;;;;5014834;28;20025;-59
2023/05/14 10:34:37;;;;;;;6.93;3.90;;;22.70;96.50;;;;;;5014835;28;20100;-59
2023/05/14 10:37:05;;;;;;;5.80;3.20;;;22.80;95.60;;;;;;5014797;28;20029;-59
2023/05/14 10:39:52;;;;;;;7.88;3.65;;;23.60;94.40;;;;;;5014650;28;20055;-59
2023/05/14 10:42:24;;;;;;;7.22;3.50;;;24.50;92.60;;;;;;5014722;28;20030;-60
2023/05/14 10:44:56;;;;;;;8.32;2.88;;;24.20;81.60;;;;;;5014552;28;20152;-60
2023/05/14 10:47:25;;;;;;;6.45;3.72;;;24.50;80.40;;;;;;5014257;28;20391;-60
2023/05/14 10:49:54;;;;;;;7.97;2.63;;;24.50;83.80;;;;;;5014657;28;20034;-60
2023/05/14 10:52:21;;;;;;;5.65;2.95;;;25.00;83.90;;;;;;5014636;28;20030;-60
2023/05/14 10:54:55;;;;;;;4.90;2.63;;;25.70;78.90;;;;;;5014601;28;20435;-60
2023/05/14 10:57:26;;;;;;;5.97;2.78;;;26.10;74.80;;;;;;5014511;28;20635;-60
2023/05/14 10:59:55;;;;;;;7.20;3.05;;;26.40;77.00;;;;;;5014660;28;20026;-60
2023/05/14 11:02:31;;;;;;;7.43;2.78;;;26.10;72.00;;;;;;5014573;28;20038;-60
2023/05/14 11:05:04;;;;;;;7.05;2.90;;;26.10;72.10;;;;;;5014570;28;20029;-59
2023/05/14 11:07:32;;;;;;;7.80;3.78;;;26.20;73.60;;;;;;5014376;28;20097;-60
2023/05/14 11:10:06;;;;;;;6.40;3.72;;;26.30;75.80;;;;;;5014340;28;20026;-60
2023/05/14 11:12:34;;;;;;;9.70;3.83;;;26.30;74.70;;;;;;5014471;28;20030;-60
2023/05/14 11:15:06;;;;;;;8.50;3.30;;;26.20;71.30;;;;;;4996770;28;20132;-60
2023/05/14 11:17:35;;;;;;;10.52;2.83;;;24.80;70.80;;;;;;5014293;28;20065;-60
2023/05/14 11:20:01;;;;;;;6.55;2.03;;;24.10;76.50;;;;;;5014376;28;20550;-60
2023/05/14 11:22:27;;;;;;;5.43;2.30;;;23.80;71.40;;;;;;5014694;28;20026;-60
2023/05/14 11:24:53;;;;;;;8.27;2.42;;;23.70;72.80;;;;;;5014464;28;20113;-60
2023/05/14 11:27:21;;;;;;;7.15;2.58;;;23.70;70.90;;;;;;5014320;28;20557;-60
2023/05/14 11:29:48;;;;;;;9.45;2.97;;;23.50;72.70;;;;;;5014411;28;20148;-59
2023/05/14 11:32:15;;;;;;;10.30;2.90;;;23.40;74.20;;;;;;5014193;28;20124;-59
2023/05/14 11:34:43;;;;;;;6.57;3.08;;;23.30;75.70;;;;;;5014395;28;20038;-59
2023/05/14 11:37:11;;;;;;;9.50;3.33;;;23.00;77.00;;;;;;5014360;28;20057;-59
2023/05/14 11:39:38;;;;;;;7.97;2.65;;;22.90;77.90;;;;;;5014057;28;20467;-59
2023/05/14 11:42:11;;;;;;;6.78;2.72;;;22.90;80.30;;;;;;5014334;28;20029;-60
2023/05/14 11:44:43;;;;;;;8.15;2.55;;;23.20;83.40;;;;;;4996613;28;20037;-59
2023/05/14 11:47:10;;;;;;;9.77;3.35;;;23.00;78.10;;;;;;5014277;28;20472;-59
2023/05/14 11:49:36;;;;;;;6.60;2.60;;;23.00;78.50;;;;;;5014208;28;20022;-59
2023/05/14 11:52:07;;;;;;;6.65;2.88;;;22.70;78.60;;;;;;5014150;28;20034;-59
2023/05/14 11:54:33;;;;;;;9.40;3.10;;;22.60;81.50;;;;;;5014158;28;20483;-59
2023/05/14 11:57:01;;;;;;;9.93;3.05;;;23.00;84.70;;;;;;5014051;28;20510;-59
2023/05/14 11:59:30;;;;;;;10.93;2.78;;;23.60;83.30;;;;;;5015965;28;20128;-59
2023/05/14 12:01:56;;;;;;;6.68;2.05;;;24.00;78.10;;;;;;5017617;28;20390;-60
2023/05/14 12:04:23;;;;;;;8.85;1.92;;;24.40;69.60;;;;;;5017572;28;20574;-59
2023/05/14 12:06:50;;;;;;;8.57;2.45;;;24.90;72.20;;;;;;5017355;28;20479;-60
2023/05/14 12:09:17;;;;;;;9.82;2.50;;;25.20;65.60;;;;;;5017270;28;20553;-60
2023/05/14 12:11:47;;;;;;;8.10;2.35;;;25.90;66.70;;;;;;5017384;28;20535;-59
2023/05/14 12:14:20;;;;;;;6.00;2.53;;;26.40;66.60;;;;;;5017335;28;20109;-60
2023/05/14 12:16:46;;;;;;;9.77;2.30;;;25.50;60.50;;;;;;5017396;28;20022;-59
2023/05/14 12:19:17;;;;;;;12.40;2.33;;;25.40;59.30;;;;;;5017131;28;20053;-59
2023/05/14 12:21:45;;;;;;;8.80;1.85;;;25.50;59.90;;;;;;5017311;28;20029;-60
2023/05/14 12:24:16;;;;;;;10.07;2.13;;;25.70;60.70;;;;;;5017210;28;20108;-60
2023/05/14 12:26:50;;;;;;;8.70;1.95;;;25.80;59.50;;;;;;5017187;28;20026;-60
2023/05/14 12:29:16;;;;;;;6.50;1.60;;;25.50;59.70;;;;;;5017049;28;20447;-60
2023/05/14 12:31:49;;;;;;;10.52;2.25;;;25.20;60.60;;;;;;5017046;28;20021;-59
2023/05/14 12:34:16;;;;;;;9.48;1.63;;;25.00;59.90;;;;;;5016939;28;20050;-60
2023/05/14 12:36:42;;;;;;;13.93;2.20;;;25.00;60.90;;;;;;5016957;28;20040;-59
2023/05/14 12:39:09;;;;;;;11.90;3.00;;;24.60;63.10;;;;;;5016972;28;20068;-59
2023/05/14 12:41:36;;;;;;;6.35;2.33;;;24.40;65.70;;;;;;5017009;28;20030;-59
2023/05/14 12:44:03;;;;;;;5.53;2.00;;;24.70;66.90;;;;;;5016759;28;20483;-59